Time;durP1;ratioP1;P1;durP2;ratioP2;P2;SDS_P1;SDS_P2;PMS_P1;PMS_P2;Temp;Humidity;BMP_temperature;BMP_pressure;BME280_temperature;BME280_humidity;BME280_pressure;Samples;Min_cycle;Max_cycle;Signal;HPM_P1;HPM_P2
2020/12/19 00:01:06;;;;;;;17.55;9.80;;;6.80;99.90;;;;;;5023648;28;20423;-71
2020/12/19 00:03:32;;;;;;;26.00;11.10;;;6.80;99.90;;;;;;5026039;28;20157;-75
2020/12/19 00:05:59;;;;;;;19.45;10.30;;;6.80;99.90;;;;;;5028948;28;20115;-72
2020/12/19 00:08:26;;;;;;;14.70;9.65;;;6.80;99.90;;;;;;5027753;28;20052;-70
2020/12/19 00:10:52;;;;;;;19.73;11.50;;;6.80;99.90;;;;;;5027615;28;20061;-73
2020/12/19 00:13:18;;;;;;;14.40;9.57;;;6.80;99.90;;;;;;5029300;28;20580;-76
2020/12/19 00:15:45;;;;;;;15.68;10.55;;;6.80;99.90;;;;;;5023710;28;20065;-72
2020/12/19 00:18:15;;;;;;;;;;;6.80;99.90;;;;;;5033190;28;20049;-68
2020/12/19 00:20:41;;;;;;;18.15;10.63;;;6.90;99.90;;;;;;5024471;28;19933;-72
2020/12/19 00:23:08;;;;;;;17.20;10.35;;;6.90;99.90;;;;;;5026177;28;20088;-72
2020/12/19 00:25:34;;;;;;;19.27;11.57;;;6.90;99.90;;;;;;5025726;28;20064;-71
2020/12/19 00:28:01;;;;;;;13.00;11.13;;;6.90;99.90;;;;;;5026092;28;20080;-72
2020/12/19 00:30:27;;;;;;;15.02;9.50;;;6.80;99.90;;;;;;5033649;28;20853;-74
2020/12/19 00:32:53;;;;;;;15.25;12.13;;;6.90;99.90;;;;;;5028122;28;20429;-71
2020/12/19 00:35:20;;;;;;;16.88;11.20;;;6.80;99.90;;;;;;5023146;28;20115;-68
2020/12/19 00:37:46;;;;;;;16.90;11.65;;;6.90;99.90;;;;;;5027586;28;20160;-68
2020/12/19 00:40:13;;;;;;;22.52;13.15;;;6.90;99.90;;;;;;5024562;28;20163;-76
2020/12/19 00:42:39;;;;;;;15.70;10.43;;;6.90;99.90;;;;;;5022482;28;20092;-71
2020/12/19 00:45:08;;;;;;;16.67;10.10;;;6.90;99.90;;;;;;5027561;28;20049;-70
2020/12/19 00:47:38;;;;;;;16.67;11.05;;;6.90;99.90;;;;;;5026056;28;20443;-72
2020/12/19 00:50:07;;;;;;;20.20;10.77;;;6.90;99.90;;;;;;5023834;28;20072;-77
2020/12/19 00:52:34;;;;;;;11.75;10.25;;;7.00;99.90;;;;;;5025200;28;20103;-70
2020/12/19 00:55:01;;;;;;;17.95;11.95;;;7.00;99.90;;;;;;5027373;28;20744;-71
2020/12/19 00:57:34;;;;;;;17.25;10.82;;;7.00;99.90;;;;;;5023281;28;20140;-73
2020/12/19 01:00:03;;;;;;;18.67;13.32;;;7.00;99.90;;;;;;5026335;28;20046;-72
2020/12/19 01:02:30;;;;;;;18.53;9.63;;;7.10;99.90;;;;;;5021860;28;20049;-72
2020/12/19 01:05:11;;;;;;;17.77;10.50;;;7.10;99.90;;;;;;5023959;28;20045;-69
2020/12/19 01:07:38;;;;;;;21.23;13.57;;;7.10;99.90;;;;;;5029514;28;20110;-72
2020/12/19 01:10:08;;;;;;;19.08;11.73;;;7.10;99.90;;;;;;5029552;28;20519;-72
2020/12/19 01:12:35;;;;;;;21.60;11.18;;;7.10;99.90;;;;;;5029664;28;20155;-73
2020/12/19 01:15:02;;;;;;;12.48;10.13;;;7.10;99.90;;;;;;5028469;28;20125;-68
2020/12/19 01:17:29;;;;;;;14.85;9.90;;;7.10;99.90;;;;;;5024884;28;20503;-73
2020/12/19 01:19:55;;;;;;;14.25;9.82;;;7.20;99.90;;;;;;5030396;28;20113;-70
2020/12/19 01:22:21;;;;;;;14.85;9.73;;;7.20;99.90;;;;;;5025552;28;20397;-72
2020/12/19 01:24:48;;;;;;;17.75;9.98;;;7.20;99.90;;;;;;5027168;28;20225;-72
2020/12/19 01:27:14;;;;;;;22.73;10.52;;;7.20;99.90;;;;;;5028720;28;20681;-73
2020/12/19 01:29:41;;;;;;;20.85;11.13;;;7.10;99.90;;;;;;5025128;28;20048;-71
2020/12/19 01:32:07;;;;;;;20.73;13.40;;;7.10;99.90;;;;;;5031057;28;20051;-72
2020/12/19 01:34:33;;;;;;;17.77;11.07;;;7.20;99.90;;;;;;5025958;28;20118;-72
2020/12/19 01:37:00;;;;;;;23.80;13.32;;;7.20;99.90;;;;;;5024138;28;20065;-71
2020/12/19 01:39:26;;;;;;;16.83;10.95;;;7.20;99.90;;;;;;5031430;28;20080;-72
2020/12/19 01:41:53;;;;;;;27.10;11.77;;;7.20;99.90;;;;;;5025109;28;20041;-70
2020/12/19 01:44:20;;;;;;;19.38;12.95;;;7.20;99.90;;;;;;5024444;28;20519;-72
2020/12/19 01:46:59;;;;;;;22.50;12.38;;;7.20;99.90;;;;;;5021204;28;20558;-73
2020/12/19 01:49:35;;;;;;;16.95;11.40;;;7.20;99.90;;;;;;5027250;28;20733;-68
2020/12/19 01:52:04;;;;;;;23.73;11.25;;;7.20;99.90;;;;;;5022241;28;20053;-69
2020/12/19 01:54:31;;;;;;;20.55;12.73;;;7.20;99.90;;;;;;5024100;28;20045;-72
2020/12/19 01:57:00;;;;;;;21.60;12.75;;;7.20;99.90;;;;;;5028835;28;20044;-73
2020/12/19 01:59:28;;;;;;;24.88;12.32;;;7.10;99.90;;;;;;5031474;28;20148;-72
2020/12/19 02:02:02;;;;;;;23.73;12.82;;;7.10;99.90;;;;;;5026731;28;20116;-76
2020/12/19 02:04:29;;;;;;;26.80;14.20;;;7.10;99.90;;;;;;5022859;28;20076;-75
2020/12/19 02:06:58;;;;;;;17.13;11.57;;;7.10;99.90;;;;;;5025733;28;20079;-74
2020/12/19 02:09:27;;;;;;;19.92;12.50;;;7.10;99.90;;;;;;5026865;28;20048;-74
2020/12/19 02:11:54;;;;;;;17.87;13.23;;;7.10;99.90;;;;;;5026747;28;20445;-75
2020/12/19 02:14:21;;;;;;;16.90;12.48;;;7.10;99.90;;;;;;5025295;28;20045;-69
2020/12/19 02:17:11;;;;;;;18.50;10.90;;;7.10;99.90;;;;;;5024630;28;20060;-71
2020/12/19 02:19:41;;;;;;;23.08;12.68;;;7.10;99.90;;;;;;5028401;28;20037;-74
2020/12/19 02:22:09;;;;;;;18.65;11.23;;;7.10;99.90;;;;;;5029638;28;20610;-73
2020/12/19 02:24:35;;;;;;;17.88;11.85;;;7.10;99.90;;;;;;5029197;28;20596;-71
2020/12/19 02:27:02;;;;;;;20.13;12.68;;;7.10;99.90;;;;;;5028899;28;20144;-72
2020/12/19 02:29:31;;;;;;;19.88;11.25;;;7.10;99.90;;;;;;5025059;28;20472;-73
2020/12/19 02:31:59;;;;;;;14.05;10.00;;;7.10;99.90;;;;;;5028445;28;20172;-71
2020/12/19 02:34:26;;;;;;;23.90;11.35;;;7.10;99.90;;;;;;5027027;28;20053;-71
2020/12/19 02:36:53;;;;;;;22.63;11.65;;;7.20;99.90;;;;;;5025812;28;20154;-74
2020/12/19 02:39:20;;;;;;;19.48;10.40;;;7.10;99.90;;;;;;5029540;28;20052;-71
2020/12/19 02:41:48;;;;;;;17.30;10.80;;;7.10;99.90;;;;;;5029802;28;20049;-76
2020/12/19 02:44:18;;;;;;;20.40;10.45;;;7.10;99.90;;;;;;5033169;28;20374;-73
2020/12/19 02:46:45;;;;;;;25.30;13.73;;;7.10;99.90;;;;;;5032612;28;20426;-71
2020/12/19 02:49:12;;;;;;;21.20;10.95;;;7.10;99.90;;;;;;5025507;28;20465;-68
2020/12/19 02:51:39;;;;;;;17.48;10.52;;;7.10;99.90;;;;;;5033621;28;20080;-70
2020/12/19 02:54:06;;;;;;;16.80;10.75;;;7.10;99.90;;;;;;5029817;28;20562;-77
2020/12/19 02:56:32;;;;;;;17.42;13.40;;;7.10;99.90;;;;;;5025202;28;20068;-74
2020/12/19 02:59:17;;;;;;;26.38;12.15;;;7.10;99.90;;;;;;5029837;28;20070;-71
2020/12/19 03:01:44;;;;;;;19.52;10.10;;;7.10;99.90;;;;;;5029399;28;20037;-75
2020/12/19 03:04:10;;;;;;;22.20;13.00;;;7.10;99.90;;;;;;5032186;28;20076;-72
2020/12/19 03:06:37;;;;;;;24.50;11.73;;;7.10;99.90;;;;;;5023571;28;20049;-73
2020/12/19 03:09:04;;;;;;;29.35;12.80;;;7.10;99.90;;;;;;5028315;28;20069;-72
2020/12/19 03:11:30;;;;;;;28.92;13.40;;;7.10;99.90;;;;;;5032402;28;20388;-70
2020/12/19 03:13:57;;;;;;;31.90;11.82;;;7.10;99.90;;;;;;5025442;28;20136;-73
2020/12/19 03:16:23;;;;;;;20.02;10.90;;;7.10;99.90;;;;;;5035447;28;20049;-75
2020/12/19 03:18:50;;;;;;;22.30;11.57;;;7.10;99.90;;;;;;5024607;28;20712;-72
2020/12/19 03:21:17;;;;;;;20.17;12.15;;;7.10;99.90;;;;;;5027483;28;20071;-72
2020/12/19 03:23:44;;;;;;;16.23;11.15;;;7.10;99.90;;;;;;5032245;28;20393;-73
2020/12/19 03:26:10;;;;;;;21.08;12.25;;;7.10;99.90;;;;;;5025763;28;20052;-75
2020/12/19 03:28:37;;;;;;;21.35;11.18;;;7.10;99.90;;;;;;5023074;28;20182;-70
2020/12/19 03:31:03;;;;;;;22.83;11.77;;;7.10;99.90;;;;;;5030287;28;20148;-73
2020/12/19 03:33:30;;;;;;;22.23;12.50;;;7.10;99.90;;;;;;5028465;28;20173;-72
2020/12/19 03:35:56;;;;;;;19.23;9.77;;;7.10;99.90;;;;;;5031640;28;20076;-68
2020/12/19 03:38:23;;;;;;;27.85;11.45;;;7.10;99.90;;;;;;5030927;28;20065;-70
2020/12/19 03:40:49;;;;;;;21.38;11.48;;;7.10;99.90;;;;;;5031290;28;20218;-73
2020/12/19 03:43:16;;;;;;;23.15;11.98;;;7.10;99.90;;;;;;5033753;28;20501;-71
2020/12/19 03:45:42;;;;;;;16.20;12.00;;;7.10;99.90;;;;;;5030435;28;20069;-73
2020/12/19 03:48:09;;;;;;;21.48;11.98;;;7.10;99.90;;;;;;5029861;28;20049;-72
2020/12/19 03:50:35;;;;;;;22.55;12.45;;;7.10;99.90;;;;;;5023818;28;20420;-74
2020/12/19 03:53:02;;;;;;;19.70;11.48;;;7.10;99.90;;;;;;5025192;28;20077;-72
2020/12/19 03:55:28;;;;;;;20.05;12.10;;;7.10;99.90;;;;;;5032389;28;20063;-71
2020/12/19 03:57:55;;;;;;;15.85;10.95;;;7.10;99.90;;;;;;5023723;28;20045;-70
2020/12/19 04:00:21;;;;;;;29.52;11.65;;;7.10;99.90;;;;;;5028128;28;20103;-68
2020/12/19 04:02:48;;;;;;;24.77;13.38;;;7.10;99.90;;;;;;5025557;28;20057;-72
2020/12/19 04:05:15;;;;;;;21.50;12.00;;;7.10;99.90;;;;;;5031987;28;20072;-67
2020/12/19 04:07:42;;;;;;;19.17;11.02;;;7.10;99.90;;;;;;5027672;28;20107;-74
2020/12/19 04:10:09;;;;;;;18.80;12.25;;;7.10;99.90;;;;;;5026494;28;20098;-73
2020/12/19 04:12:36;;;;;;;24.98;12.48;;;7.10;99.90;;;;;;5022346;28;20060;-68
2020/12/19 04:15:07;;;;;;;21.45;13.32;;;7.00;99.90;;;;;;5026673;28;20049;-74
2020/12/19 04:17:35;;;;;;;21.20;13.48;;;7.10;99.90;;;;;;5026679;28;20041;-72
2020/12/19 04:20:05;;;;;;;28.73;13.95;;;7.00;99.90;;;;;;5032178;28;20044;-71
2020/12/19 04:22:32;;;;;;;26.20;15.18;;;7.00;99.90;;;;;;5027676;28;20055;-70
2020/12/19 04:24:59;;;;;;;26.27;13.30;;;7.00;99.90;;;;;;5025398;28;20049;-71
2020/12/19 04:27:25;;;;;;;31.15;14.35;;;7.00;99.90;;;;;;5032162;28;20045;-72
2020/12/19 04:29:51;;;;;;;25.17;14.68;;;7.00;99.90;;;;;;5026764;28;20077;-69
2020/12/19 04:32:18;;;;;;;20.38;13.30;;;7.00;99.90;;;;;;5026183;28;20045;-71
2020/12/19 04:34:45;;;;;;;27.83;16.15;;;7.00;99.90;;;;;;5025186;28;20057;-68
2020/12/19 04:37:20;;;;;;;27.58;14.43;;;7.00;99.90;;;;;;5024853;28;20148;-71
2020/12/19 04:39:47;;;;;;;21.70;14.98;;;7.00;99.90;;;;;;5028829;28;20045;-70
2020/12/19 04:42:15;;;;;;;27.70;15.70;;;7.00;99.90;;;;;;5026460;28;20148;-71
2020/12/19 04:44:41;;;;;;;22.77;16.05;;;7.10;99.90;;;;;;5023593;28;20053;-70
2020/12/19 04:47:08;;;;;;;32.63;16.55;;;7.00;99.90;;;;;;5027654;28;20045;-70
2020/12/19 04:49:54;;;;;;;27.55;15.95;;;7.00;99.90;;;;;;5026580;28;20593;-70
2020/12/19 04:52:21;;;;;;;26.15;16.35;;;7.10;99.90;;;;;;5029268;28;20053;-67
2020/12/19 04:54:47;;;;;;;31.17;17.75;;;7.00;99.90;;;;;;5026451;28;20085;-68
2020/12/19 04:57:18;;;;;;;27.73;16.88;;;7.10;99.90;;;;;;5025481;28;20099;-76
2020/12/19 04:59:46;;;;;;;24.52;16.48;;;7.10;99.90;;;;;;5025074;28;20045;-69
2020/12/19 05:02:12;;;;;;;28.95;18.48;;;7.10;99.90;;;;;;5028469;28;20068;-69
2020/12/19 05:04:42;;;;;;;35.80;17.83;;;7.00;99.90;;;;;;5024965;28;20714;-71
2020/12/19 05:07:12;;;;;;;27.58;18.63;;;7.10;99.90;;;;;;5029089;28;20050;-72
2020/12/19 05:09:41;;;;;;;34.60;19.65;;;7.10;99.90;;;;;;5024462;28;20053;-71
2020/12/19 05:12:09;;;;;;;30.08;18.33;;;7.10;99.90;;;;;;5026656;28;20578;-71
2020/12/19 05:14:54;;;;;;;31.25;18.25;;;7.10;99.90;;;;;;5027795;28;20347;-69
2020/12/19 05:17:21;;;;;;;27.08;18.02;;;7.10;99.90;;;;;;5022388;28;20045;-72
2020/12/19 05:19:53;;;;;;;33.60;19.00;;;7.10;99.90;;;;;;5023151;28;20049;-71
2020/12/19 05:22:20;;;;;;;32.60;18.27;;;7.10;99.90;;;;;;5030777;28;20048;-69
2020/12/19 05:24:47;;;;;;;29.35;18.80;;;7.10;99.90;;;;;;5025812;28;20073;-68
2020/12/19 05:27:13;;;;;;;25.77;16.95;;;7.10;99.90;;;;;;5028234;28;20120;-73
2020/12/19 05:29:40;;;;;;;27.10;17.25;;;7.10;99.90;;;;;;5028372;28;20049;-69
2020/12/19 05:32:07;;;;;;;28.90;17.73;;;7.10;99.90;;;;;;5031263;28;20095;-70
2020/12/19 05:34:34;;;;;;;32.45;19.00;;;7.10;99.90;;;;;;5025817;28;20083;-72
2020/12/19 05:37:01;;;;;;;24.73;16.95;;;7.10;99.90;;;;;;5027365;28;20041;-75
2020/12/19 05:39:28;;;;;;;27.08;18.70;;;7.10;99.90;;;;;;5029219;28;20045;-71
2020/12/19 05:41:54;;;;;;;32.65;17.30;;;7.10;99.90;;;;;;5025883;28;20049;-75
2020/12/19 05:44:22;;;;;;;29.50;17.67;;;7.10;99.90;;;;;;5031530;28;20182;-67
2020/12/19 05:46:48;;;;;;;33.72;15.93;;;7.10;99.90;;;;;;5030155;28;21373;-71
2020/12/19 05:49:16;;;;;;;30.98;16.45;;;7.10;99.90;;;;;;5028669;28;20231;-71
2020/12/19 05:51:44;;;;;;;26.15;16.13;;;7.00;99.90;;;;;;5028579;28;20449;-75
2020/12/19 05:54:15;;;;;;;27.98;17.63;;;7.10;99.90;;;;;;5031329;28;20045;-70
2020/12/19 05:56:44;;;;;;;33.28;16.10;;;7.10;99.90;;;;;;5031450;28;20045;-70
2020/12/19 05:59:16;;;;;;;27.52;17.25;;;7.00;99.90;;;;;;5036928;28;20511;-74
2020/12/19 06:01:45;;;;;;;23.52;16.25;;;7.00;99.90;;;;;;5031741;28;20045;-72
2020/12/19 06:04:13;;;;;;;26.05;17.33;;;7.00;99.90;;;;;;5035591;28;20185;-70
2020/12/19 06:06:43;;;;;;;26.17;15.80;;;7.00;99.90;;;;;;5030279;28;20048;-71
2020/12/19 06:09:10;;;;;;;23.40;15.60;;;7.00;99.90;;;;;;5029179;28;20114;-77
2020/12/19 06:11:48;;;;;;;26.98;15.80;;;7.00;99.90;;;;;;5031812;28;20117;-73
2020/12/19 06:14:39;;;;;;;26.70;16.80;;;7.00;99.90;;;;;;5029169;28;20049;-75
2020/12/19 06:17:11;;;;;;;26.80;16.15;;;7.00;99.90;;;;;;5028909;28;20049;-72
2020/12/19 06:19:43;;;;;;;27.38;16.58;;;7.00;99.90;;;;;;5032185;28;20041;-74
2020/12/19 06:22:09;;;;;;;25.13;16.95;;;7.00;99.90;;;;;;5034461;28;20053;-77
2020/12/19 06:24:48;;;;;;;27.55;17.08;;;7.00;99.90;;;;;;5025358;28;20232;-70
2020/12/19 06:27:37;;;;;;;27.77;15.10;;;7.00;99.90;;;;;;5029657;28;20512;-74
2020/12/19 06:30:04;;;;;;;17.42;13.90;;;7.00;99.90;;;;;;5030052;28;20053;-72
2020/12/19 06:32:31;;;;;;;30.30;18.80;;;7.00;99.90;;;;;;5027264;28;20057;-67
2020/12/19 06:35:02;;;;;;;20.95;15.88;;;7.00;99.90;;;;;;5028767;28;20059;-69
2020/12/19 06:37:31;;;;;;;23.60;15.30;;;7.00;99.90;;;;;;5030897;28;20061;-71
2020/12/19 06:40:10;;;;;;;24.85;14.45;;;7.00;99.90;;;;;;5027386;28;20145;-70
2020/12/19 06:42:37;;;;;;;22.33;14.88;;;7.00;99.90;;;;;;5031917;28;20051;-70
2020/12/19 06:45:30;;;;;;;25.52;14.88;;;7.00;99.90;;;;;;5029816;28;20570;-72
2020/12/19 06:47:57;;;;;;;24.10;15.68;;;7.00;99.90;;;;;;5025151;28;20084;-71
2020/12/19 06:50:25;;;;;;;21.30;13.60;;;7.00;99.90;;;;;;5032539;28;20516;-72
2020/12/19 06:52:56;;;;;;;19.20;12.85;;;7.00;99.90;;;;;;5024773;28;20053;-72
2020/12/19 06:55:41;;;;;;;17.60;13.02;;;6.90;99.90;;;;;;5029949;28;20673;-67
2020/12/19 06:58:07;;;;;;;24.85;15.13;;;7.00;99.90;;;;;;5028791;28;20048;-72
2020/12/19 07:00:35;;;;;;;22.95;13.82;;;6.90;99.90;;;;;;5025639;28;20048;-76
2020/12/19 07:03:03;;;;;;;21.00;14.38;;;6.90;99.90;;;;;;5039363;28;20056;-72
2020/12/19 07:05:31;;;;;;;20.65;13.68;;;6.90;99.90;;;;;;5035158;28;20045;-77
2020/12/19 07:08:22;;;;;;;22.73;13.88;;;6.90;99.90;;;;;;5026461;28;20090;-73
2020/12/19 07:10:50;;;;;;;21.95;14.30;;;6.90;99.90;;;;;;5037351;28;20053;-71
2020/12/19 07:13:17;;;;;;;25.92;14.10;;;6.90;99.90;;;;;;5031639;28;20098;-72
2020/12/19 07:15:44;;;;;;;19.67;14.10;;;6.90;99.90;;;;;;5030463;28;20041;-71
2020/12/19 07:18:30;;;;;;;19.77;13.55;;;6.90;99.90;;;;;;5028237;28;20222;-68
2020/12/19 07:21:04;;;;;;;16.20;12.82;;;6.90;99.90;;;;;;5026119;28;20691;-71
2020/12/19 07:23:32;;;;;;;15.85;12.02;;;6.90;99.90;;;;;;5022861;28;20072;-68
2020/12/19 07:26:00;;;;;;;31.67;16.10;;;6.90;99.90;;;;;;5035845;28;20056;-71
2020/12/19 07:28:27;;;;;;;23.92;15.18;;;6.90;99.90;;;;;;5027929;28;20060;-78
2020/12/19 07:30:53;;;;;;;20.55;13.50;;;6.90;99.90;;;;;;5032802;28;20115;-74
2020/12/19 07:33:20;;;;;;;18.50;13.93;;;6.80;99.90;;;;;;5030694;28;20060;-70
2020/12/19 07:35:47;;;;;;;16.42;13.43;;;6.80;99.90;;;;;;5029481;28;20485;-71
2020/12/19 07:38:32;;;;;;;25.73;13.63;;;6.80;99.90;;;;;;5030305;28;20056;-68
2020/12/19 07:40:59;;;;;;;15.13;11.77;;;6.80;99.90;;;;;;5031994;28;20136;-70
2020/12/19 07:43:26;;;;;;;21.77;13.52;;;6.80;99.90;;;;;;5030547;28;20072;-67
2020/12/19 07:45:56;;;;;;;21.10;13.88;;;6.80;99.90;;;;;;5032992;28;20052;-69
2020/12/19 07:48:23;;;;;;;24.38;12.73;;;6.80;99.90;;;;;;5026381;28;20057;-72
2020/12/19 07:50:49;;;;;;;20.23;12.68;;;6.90;99.90;;;;;;5024006;28;20660;-72
2020/12/19 07:53:16;;;;;;;18.40;12.70;;;6.80;99.90;;;;;;5030013;28;20048;-70
2020/12/19 07:55:50;;;;;;;16.20;13.55;;;6.80;99.90;;;;;;5032170;28;20045;-74
2020/12/19 07:58:18;;;;;;;19.70;13.98;;;6.80;99.90;;;;;;5030631;28;20104;-71
2020/12/19 08:00:44;;;;;;;19.75;14.60;;;6.80;99.90;;;;;;5025028;28;20072;-74
2020/12/19 08:03:13;;;;;;;22.83;15.38;;;6.80;99.90;;;;;;5028083;28;20061;-70
2020/12/19 08:05:40;;;;;;;18.58;14.68;;;6.80;99.90;;;;;;5034598;28;20055;-72
2020/12/19 08:08:06;;;;;;;18.88;14.90;;;6.80;99.90;;;;;;5026887;28;20053;-68
2020/12/19 08:10:33;;;;;;;19.48;13.50;;;6.80;99.90;;;;;;5033334;28;20117;-72
2020/12/19 08:13:00;;;;;;;22.92;13.85;;;6.80;99.90;;;;;;5025204;28;20182;-70
2020/12/19 08:15:27;;;;;;;22.30;13.98;;;6.80;99.90;;;;;;5028033;28;20155;-71
2020/12/19 08:17:57;;;;;;;21.40;14.93;;;6.80;99.90;;;;;;5026738;28;20053;-71
2020/12/19 08:20:27;;;;;;;20.30;11.82;;;6.80;99.90;;;;;;5029276;28;20044;-71
2020/12/19 08:22:55;;;;;;;18.92;13.60;;;6.80;99.90;;;;;;5035408;28;20311;-71
2020/12/19 08:25:22;;;;;;;18.15;13.15;;;6.80;99.90;;;;;;5022881;28;20069;-75
2020/12/19 08:27:51;;;;;;;25.48;14.48;;;6.80;99.90;;;;;;5025921;28;20041;-73
2020/12/19 08:30:37;;;;;;;21.77;13.45;;;6.80;99.90;;;;;;5033609;28;20081;-68
2020/12/19 08:33:07;;;;;;;21.38;14.65;;;6.80;99.90;;;;;;5026217;28;20276;-71
2020/12/19 08:35:34;;;;;;;;;;;6.80;99.90;;;;;;5028662;28;20061;-73
2020/12/19 08:38:11;;;;;;;33.30;14.98;;;6.80;99.90;;;;;;5028632;28;19971;-69
2020/12/19 08:40:40;;;;;;;23.08;14.48;;;6.80;99.90;;;;;;5028836;28;20087;-73
2020/12/19 08:43:08;;;;;;;18.92;11.82;;;6.80;99.90;;;;;;5031534;28;20132;-68
2020/12/19 08:45:42;;;;;;;28.67;14.05;;;6.80;99.90;;;;;;5034252;28;20078;-71
2020/12/19 08:48:19;;;;;;;25.70;16.92;;;6.90;99.90;;;;;;5027024;28;20430;-72
2020/12/19 08:50:47;;;;;;;22.25;15.15;;;6.90;99.90;;;;;;5031271;28;20106;-72
2020/12/19 08:53:27;;;;;;;22.35;13.02;;;6.90;99.90;;;;;;5034268;28;20045;-70
2020/12/19 08:55:54;;;;;;;22.70;14.52;;;6.90;99.90;;;;;;5025986;28;20087;-69
2020/12/19 08:58:29;;;;;;;22.60;14.43;;;6.90;99.90;;;;;;5034115;28;20098;-70
2020/12/19 09:00:58;;;;;;;19.88;13.65;;;7.00;99.90;;;;;;5028445;28;20393;-68
2020/12/19 09:03:29;;;;;;;19.00;12.95;;;7.00;99.90;;;;;;5029912;28;20072;-70
2020/12/19 09:06:06;;;;;;;29.60;14.35;;;7.00;99.90;;;;;;5029283;28;20056;-67
2020/12/19 09:08:37;;;;;;;18.40;12.63;;;7.00;99.90;;;;;;5026793;28;20048;-72
2020/12/19 09:11:08;;;;;;;24.02;14.20;;;7.00;99.90;;;;;;5027825;28;20040;-71
2020/12/19 09:13:36;;;;;;;25.45;14.80;;;7.10;99.90;;;;;;5026308;28;20136;-70
2020/12/19 09:16:06;;;;;;;31.40;18.17;;;7.10;99.90;;;;;;5025606;28;20703;-70
2020/12/19 09:18:34;;;;;;;20.75;15.27;;;7.10;99.90;;;;;;5024480;28;20586;-75
2020/12/19 09:21:02;;;;;;;17.60;12.07;;;7.20;99.90;;;;;;5031468;28;20448;-71
2020/12/19 09:23:29;;;;;;;24.95;14.82;;;7.10;99.90;;;;;;5023684;28;20072;-72
2020/12/19 09:25:58;;;;;;;17.48;14.18;;;7.20;99.90;;;;;;5026233;28;20061;-69
2020/12/19 09:28:25;;;;;;;26.38;14.43;;;7.20;99.90;;;;;;5028780;28;20059;-68
2020/12/19 09:30:53;;;;;;;25.75;14.52;;;7.20;99.90;;;;;;5025403;28;20094;-67
2020/12/19 09:33:20;;;;;;;26.27;15.95;;;7.20;99.90;;;;;;5034040;28;20048;-73
2020/12/19 09:35:47;;;;;;;25.90;17.45;;;7.20;99.90;;;;;;5025490;28;20112;-72
2020/12/19 09:38:14;;;;;;;23.33;16.13;;;7.20;99.90;;;;;;5030635;28;20045;-73
2020/12/19 09:40:41;;;;;;;19.25;14.13;;;7.20;99.90;;;;;;5028385;28;20447;-69
2020/12/19 09:43:08;;;;;;;22.52;14.70;;;7.10;99.90;;;;;;5030961;28;20468;-72
2020/12/19 09:45:38;;;;;;;23.83;14.25;;;7.20;99.90;;;;;;5023345;28;20050;-71
2020/12/19 09:48:05;;;;;;;37.85;15.52;;;7.20;99.90;;;;;;5025796;28;20080;-70
2020/12/19 09:50:32;;;;;;;27.08;16.15;;;7.20;99.90;;;;;;5025966;28;20068;-69
2020/12/19 09:52:58;;;;;;;25.13;17.85;;;7.20;99.90;;;;;;5026253;28;21554;-67
2020/12/19 09:55:27;;;;;;;25.80;16.50;;;7.20;99.90;;;;;;5027689;28;20470;-71
2020/12/19 09:57:54;;;;;;;21.70;14.95;;;7.30;99.90;;;;;;5032669;28;20122;-70
2020/12/19 10:00:21;;;;;;;21.35;14.73;;;7.20;99.90;;;;;;5030730;28;20052;-71
2020/12/19 10:02:49;;;;;;;23.48;15.18;;;7.30;99.90;;;;;;5024427;28;20172;-69
2020/12/19 10:05:16;;;;;;;24.73;15.82;;;7.30;99.90;;;;;;5027894;28;20147;-67
2020/12/19 10:07:43;;;;;;;21.73;15.98;;;7.30;99.90;;;;;;5026387;28;20112;-72
2020/12/19 10:10:10;;;;;;;24.02;15.65;;;7.30;99.90;;;;;;5024579;28;20095;-70
2020/12/19 10:12:36;;;;;;;22.60;14.85;;;7.30;99.90;;;;;;5025631;28;20049;-67
2020/12/19 10:15:05;;;;;;;27.05;16.48;;;7.30;99.90;;;;;;5029583;28;20091;-71
2020/12/19 10:17:32;;;;;;;24.33;15.60;;;7.30;99.90;;;;;;5026553;28;20059;-72
2020/12/19 10:19:58;;;;;;;20.83;13.35;;;7.30;99.90;;;;;;5023066;28;20096;-69
2020/12/19 10:22:30;;;;;;;25.70;14.27;;;7.40;99.90;;;;;;5024161;28;20049;-77
2020/12/19 10:24:59;;;;;;;19.00;16.33;;;7.40;99.90;;;;;;5030427;28;20051;-80
2020/12/19 10:27:26;;;;;;;18.00;14.52;;;7.30;99.90;;;;;;5024018;28;20455;-67
2020/12/19 10:29:52;;;;;;;24.25;15.80;;;7.30;99.90;;;;;;5023692;28;20104;-67
2020/12/19 10:32:19;;;;;;;18.95;13.63;;;7.30;99.90;;;;;;5031382;28;20073;-70
2020/12/19 10:34:46;;;;;;;23.05;15.43;;;7.30;99.90;;;;;;5023596;28;20049;-67
2020/12/19 10:37:12;;;;;;;24.63;17.33;;;7.30;99.90;;;;;;5035895;28;20057;-74
2020/12/19 10:39:39;;;;;;;15.13;12.65;;;7.20;99.90;;;;;;5031421;28;20061;-74
2020/12/19 10:42:05;;;;;;;25.05;14.93;;;7.20;99.90;;;;;;5032262;28;20081;-73
2020/12/19 10:44:32;;;;;;;27.23;14.25;;;7.20;99.90;;;;;;5033292;28;20597;-71
2020/12/19 10:46:58;;;;;;;19.30;14.18;;;7.10;99.90;;;;;;5025075;28;20491;-68
2020/12/19 10:49:26;;;;;;;22.85;15.25;;;7.10;99.90;;;;;;5028510;28;20079;-69
2020/12/19 10:51:52;;;;;;;18.40;14.93;;;7.10;99.90;;;;;;5026991;28;20061;-71
2020/12/19 10:54:19;;;;;;;20.85;16.35;;;7.10;99.90;;;;;;5030396;28;20525;-70
2020/12/19 10:56:54;;;;;;;28.58;14.00;;;7.20;99.90;;;;;;5032295;28;20093;-76
2020/12/19 10:59:21;;;;;;;17.10;14.40;;;7.20;99.90;;;;;;5029758;28;20099;-72
2020/12/19 11:01:48;;;;;;;26.10;16.77;;;7.20;99.90;;;;;;5030616;28;20164;-70
2020/12/19 11:04:14;;;;;;;20.33;15.05;;;7.20;99.90;;;;;;5036030;28;20045;-72
2020/12/19 11:06:41;;;;;;;42.25;16.98;;;7.20;99.90;;;;;;5024747;28;20057;-68
2020/12/19 11:09:08;;;;;;;20.17;14.93;;;7.20;99.90;;;;;;5035139;28;20045;-68
2020/12/19 11:11:34;;;;;;;21.63;14.23;;;7.20;99.90;;;;;;5034505;28;20047;-72
2020/12/19 11:14:00;;;;;;;16.85;12.63;;;7.10;99.90;;;;;;5028081;28;20132;-72
2020/12/19 11:16:28;;;;;;;17.88;13.18;;;7.20;99.90;;;;;;5034260;28;20053;-68
2020/12/19 11:18:56;;;;;;;18.80;12.80;;;7.20;99.90;;;;;;5023962;28;20065;-69
2020/12/19 11:21:23;;;;;;;20.95;13.30;;;7.20;99.90;;;;;;5031449;28;20045;-71
2020/12/19 11:23:50;;;;;;;16.55;12.23;;;7.20;99.90;;;;;;5031226;28;20091;-69
2020/12/19 11:26:21;;;;;;;20.52;12.13;;;7.20;99.90;;;;;;5028938;28;20115;-72
2020/12/19 11:28:50;;;;;;;18.15;12.00;;;7.20;99.90;;;;;;5036189;28;20053;-68
2020/12/19 11:31:25;;;;;;;17.02;12.65;;;7.30;99.90;;;;;;5027911;28;20122;-70
2020/12/19 11:33:52;;;;;;;19.35;12.98;;;7.30;99.90;;;;;;5027494;28;20460;-68
2020/12/19 11:36:18;;;;;;;23.35;14.15;;;7.30;99.90;;;;;;5034120;28;20045;-72
2020/12/19 11:38:45;;;;;;;20.63;12.00;;;7.30;99.90;;;;;;5021555;28;20076;-76
2020/12/19 11:41:11;;;;;;;17.20;13.32;;;7.30;99.90;;;;;;5030454;28;20036;-70
2020/12/19 11:43:38;;;;;;;18.33;13.93;;;7.40;99.90;;;;;;5034957;28;20408;-69
2020/12/19 11:46:07;;;;;;;18.50;12.60;;;7.30;99.90;;;;;;5026610;28;20107;-74
2020/12/19 11:48:34;;;;;;;17.80;11.87;;;7.30;99.90;;;;;;5024252;28;20053;-72
2020/12/19 11:51:00;;;;;;;15.40;12.05;;;7.30;99.90;;;;;;5026377;28;20127;-76
2020/12/19 11:53:28;;;;;;;21.15;13.77;;;7.30;99.90;;;;;;5026955;28;20488;-68
2020/12/19 11:55:54;;;;;;;17.90;11.88;;;7.40;99.90;;;;;;5034690;28;20480;-71
2020/12/19 11:58:21;;;;;;;18.60;12.13;;;7.40;99.90;;;;;;5026406;28;20119;-69
2020/12/19 12:00:47;;;;;;;22.63;13.23;;;7.40;99.90;;;;;;5026397;28;20102;-76
2020/12/19 12:03:14;;;;;;;20.00;11.63;;;7.40;99.90;;;;;;5032936;28;20070;-71
2020/12/19 12:05:40;;;;;;;13.60;10.93;;;7.40;99.90;;;;;;5028247;28;20052;-77
2020/12/19 12:08:07;;;;;;;19.35;12.88;;;7.30;99.90;;;;;;5038266;28;20080;-69
2020/12/19 12:10:33;;;;;;;18.38;12.20;;;7.30;99.90;;;;;;5025935;28;20037;-70
2020/12/19 12:12:59;;;;;;;21.45;12.68;;;7.20;99.90;;;;;;5026361;28;20159;-69
2020/12/19 12:15:26;;;;;;;18.35;11.93;;;7.20;99.90;;;;;;5027433;28;20605;-72
2020/12/19 12:17:52;;;;;;;14.32;11.30;;;7.20;99.90;;;;;;5027063;28;20147;-68
2020/12/19 12:20:19;;;;;;;19.15;11.32;;;7.10;99.90;;;;;;5026764;28;20045;-70
2020/12/19 12:22:45;;;;;;;19.55;12.13;;;7.10;99.90;;;;;;5030420;28;20134;-68
2020/12/19 12:25:13;;;;;;;26.83;11.27;;;7.10;99.90;;;;;;5022549;28;20406;-74
2020/12/19 12:27:39;;;;;;;16.23;10.07;;;7.10;99.90;;;;;;5031579;28;20042;-70
2020/12/19 12:30:07;;;;;;;19.75;12.20;;;7.10;99.90;;;;;;5027117;28;20099;-72
2020/12/19 12:32:33;;;;;;;21.58;10.98;;;7.00;99.90;;;;;;5032710;28;20510;-71
2020/12/19 12:35:00;;;;;;;13.32;10.95;;;7.00;99.90;;;;;;5035151;28;20048;-72
2020/12/19 12:37:26;;;;;;;19.15;11.25;;;7.00;99.90;;;;;;5029051;28;20114;-76
2020/12/19 12:39:53;;;;;;;16.48;11.45;;;7.00;99.90;;;;;;5032038;28;20037;-73
2020/12/19 12:42:21;;;;;;;26.77;13.63;;;6.90;99.90;;;;;;5027208;28;20077;-71
2020/12/19 12:44:48;;;;;;;14.45;11.65;;;6.80;99.90;;;;;;5028903;28;20049;-67